sensor_id;sensor_type;location;lat;lon;timestamp;pressure;altitude;pressure_sealevel;temperature;humidity
596;BME280;19946;49.306;11.350;2023-07-09T00:00:48;96785.34;;;17.10;100.00
596;BME280;19946;49.306;11.350;2023-07-09T00:03:49;96821.66;;;17.21;100.00
596;BME280;19946;49.306;11.350;2023-07-09T00:06:51;96554.38;;;15.62;100.00
596;BME280;19946;49.306;11.350;2023-07-09T00:09:53;96774.84;;;16.86;100.00
596;BME280;19946;49.306;11.350;2023-07-09T00:12:54;96807.75;;;16.96;100.00
596;BME280;19946;49.306;11.350;2023-07-09T00:15:58;96833.41;;;17.01;100.00
596;BME280;19946;49.306;11.350;2023-07-09T00:18:59;96794.44;;;16.73;100.00
596;BME280;19946;49.306;11.350;2023-07-09T00:22:10;96747.72;;;16.36;100.00
596;BME280;19946;49.306;11.350;2023-07-09T00:25:13;96740.31;;;16.24;100.00
596;BME280;19946;49.306;11.350;2023-07-09T00:28:17;96757.88;;;16.39;100.00
596;BME280;19946;49.306;11.350;2023-07-09T00:31:19;96765.88;;;16.38;100.00
596;BME280;19946;49.306;11.350;2023-07-09T00:34:19;96829.94;;;16.84;100.00
596;BME280;19946;49.306;11.350;2023-07-09T00:37:24;96823.38;;;16.80;100.00
596;BME280;19946;49.306;11.350;2023-07-09T00:40:27;96745.47;;;16.41;100.00
596;BME280;19946;49.306;11.350;2023-07-09T00:43:33;96743.53;;;16.43;100.00
596;BME280;19946;49.306;11.350;2023-07-09T00:49:47;96808.06;;;16.51;100.00
596;BME280;19946;49.306;11.350;2023-07-09T00:52:53;96830.53;;;16.70;100.00
596;BME280;19946;49.306;11.350;2023-07-09T00:56:05;96722.50;;;16.11;100.00
596;BME280;19946;49.306;11.350;2023-07-09T00:59:11;96835.03;;;16.94;100.00
596;BME280;19946;49.306;11.350;2023-07-09T01:02:13;96794.63;;;16.88;100.00
596;BME280;19946;49.306;11.350;2023-07-09T01:05:15;96821.19;;;17.18;100.00
596;BME280;19946;49.306;11.350;2023-07-09T01:08:18;96824.28;;;17.21;100.00
596;BME280;19946;49.306;11.350;2023-07-09T01:11:22;96745.75;;;16.81;100.00
596;BME280;19946;49.306;11.350;2023-07-09T01:14:23;96767.94;;;16.76;100.00
596;BME280;19946;49.306;11.350;2023-07-09T01:17:27;96784.28;;;16.62;100.00
596;BME280;19946;49.306;11.350;2023-07-09T01:20:28;96811.72;;;16.66;100.00
596;BME280;19946;49.306;11.350;2023-07-09T01:23:28;96789.75;;;16.43;100.00
596;BME280;19946;49.306;11.350;2023-07-09T01:26:28;96835.22;;;16.58;100.00
596;BME280;19946;49.306;11.350;2023-07-09T01:29:30;96828.66;;;16.54;100.00
596;BME280;19946;49.306;11.350;2023-07-09T01:32:32;96704.16;;;15.69;100.00
596;BME280;19946;49.306;11.350;2023-07-09T01:35:36;96809.13;;;16.32;100.00
596;BME280;19946;49.306;11.350;2023-07-09T01:38:37;96748.28;;;15.80;100.00
596;BME280;19946;49.306;11.350;2023-07-09T01:41:37;96756.44;;;15.77;100.00
596;BME280;19946;49.306;11.350;2023-07-09T01:44:37;96743.13;;;15.62;100.00
596;BME280;19946;49.306;11.350;2023-07-09T01:47:39;96823.19;;;16.05;100.00
596;BME280;19946;49.306;11.350;2023-07-09T01:50:39;96815.81;;;16.01;100.00
596;BME280;19946;49.306;11.350;2023-07-09T01:53:43;96678.97;;;15.08;100.00
596;BME280;19946;49.306;11.350;2023-07-09T01:56:44;96755.53;;;15.43;100.00
596;BME280;19946;49.306;11.350;2023-07-09T01:59:45;96685.84;;;14.91;100.00
596;BME280;19946;49.306;11.350;2023-07-09T02:02:46;96834.44;;;15.80;100.00
596;BME280;19946;49.306;11.350;2023-07-09T02:05:47;96838.50;;;15.75;100.00
596;BME280;19946;49.306;11.350;2023-07-09T02:08:48;96835.16;;;15.64;100.00
596;BME280;19946;49.306;11.350;2023-07-09T02:11:49;96841.22;;;15.65;100.00
596;BME280;19946;49.306;11.350;2023-07-09T02:14:49;96813.28;;;15.48;100.00
596;BME280;19946;49.306;11.350;2023-07-09T02:17:50;96817.47;;;15.58;100.00
596;BME280;19946;49.306;11.350;2023-07-09T02:20:52;96842.22;;;15.72;100.00
596;BME280;19946;49.306;11.350;2023-07-09T02:23:53;96778.06;;;15.26;100.00
596;BME280;19946;49.306;11.350;2023-07-09T02:26:54;96743.97;;;15.02;100.00
596;BME280;19946;49.306;11.350;2023-07-09T02:29:55;96757.59;;;15.13;100.00
596;BME280;19946;49.306;11.350;2023-07-09T02:32:56;96800.66;;;15.35;100.00
596;BME280;19946;49.306;11.350;2023-07-09T02:35:57;96827.09;;;15.58;100.00
596;BME280;19946;49.306;11.350;2023-07-09T02:38:57;96754.97;;;15.13;100.00
596;BME280;19946;49.306;11.350;2023-07-09T02:41:58;96844.69;;;15.74;100.00
596;BME280;19946;49.306;11.350;2023-07-09T02:44:58;96776.78;;;15.30;100.00
596;BME280;19946;49.306;11.350;2023-07-09T02:48:00;96756.75;;;15.30;100.00
596;BME280;19946;49.306;11.350;2023-07-09T02:51:03;96811.06;;;15.53;100.00
596;BME280;19946;49.306;11.350;2023-07-09T02:54:04;96809.38;;;15.44;100.00
596;BME280;19946;49.306;11.350;2023-07-09T02:57:04;96824.06;;;15.62;100.00
596;BME280;19946;49.306;11.350;2023-07-09T03:00:05;96815.41;;;15.44;100.00
596;BME280;19946;49.306;11.350;2023-07-09T03:03:06;96847.25;;;15.65;100.00
596;BME280;19946;49.306;11.350;2023-07-09T03:06:06;96806.03;;;15.33;100.00
596;BME280;19946;49.306;11.350;2023-07-09T03:09:07;96843.44;;;15.60;100.00
596;BME280;19946;49.306;11.350;2023-07-09T03:12:08;96683.84;;;14.50;100.00
596;BME280;19946;49.306;11.350;2023-07-09T03:15:09;96778.00;;;15.00;100.00
596;BME280;19946;49.306;11.350;2023-07-09T03:18:09;96754.97;;;14.78;100.00
596;BME280;19946;49.306;11.350;2023-07-09T03:21:10;96781.88;;;14.96;100.00
596;BME280;19946;49.306;11.350;2023-07-09T03:24:10;96846.41;;;15.29;100.00
596;BME280;19946;49.306;11.350;2023-07-09T03:27:10;96796.56;;;14.97;100.00
596;BME280;19946;49.306;11.350;2023-07-09T03:30:11;96846.72;;;15.26;100.00
596;BME280;19946;49.306;11.350;2023-07-09T03:33:13;96757.81;;;14.67;100.00
596;BME280;19946;49.306;11.350;2023-07-09T03:36:14;96867.81;;;15.33;100.00
596;BME280;19946;49.306;11.350;2023-07-09T03:39:14;96781.81;;;14.88;100.00
596;BME280;19946;49.306;11.350;2023-07-09T03:42:15;96775.56;;;14.81;100.00
596;BME280;19946;49.306;11.350;2023-07-09T03:45:15;96875.63;;;15.51;100.00
596;BME280;19946;49.306;11.350;2023-07-09T03:48:17;96873.78;;;15.61;100.00
596;BME280;19946;49.306;11.350;2023-07-09T03:51:17;96794.75;;;15.15;100.00
596;BME280;19946;49.306;11.350;2023-07-09T03:54:18;96860.25;;;15.57;100.00
596;BME280;19946;49.306;11.350;2023-07-09T03:57:18;96760.84;;;15.15;100.00
596;BME280;19946;49.306;11.350;2023-07-09T04:00:18;96858.22;;;15.95;100.00
596;BME280;19946;49.306;11.350;2023-07-09T04:03:20;96878.16;;;16.22;100.00
596;BME280;19946;49.306;11.350;2023-07-09T04:06:21;96859.13;;;16.37;100.00
596;BME280;19946;49.306;11.350;2023-07-09T04:09:21;96792.84;;;16.13;100.00
596;BME280;19946;49.306;11.350;2023-07-09T04:12:21;96884.06;;;16.58;100.00
596;BME280;19946;49.306;11.350;2023-07-09T04:15:22;96877.84;;;16.59;100.00
596;BME280;19946;49.306;11.350;2023-07-09T04:18:22;96847.94;;;16.53;100.00
596;BME280;19946;49.306;11.350;2023-07-09T04:21:22;96798.88;;;16.39;100.00
596;BME280;19946;49.306;11.350;2023-07-09T04:24:23;96780.69;;;16.63;100.00
596;BME280;19946;49.306;11.350;2023-07-09T04:27:24;96893.75;;;17.82;100.00
596;BME280;19946;49.306;11.350;2023-07-09T04:30:27;96874.66;;;18.29;100.00
596;BME280;19946;49.306;11.350;2023-07-09T04:33:27;96877.88;;;18.63;100.00
596;BME280;19946;49.306;11.350;2023-07-09T04:36:28;96818.16;;;18.81;100.00
596;BME280;19946;49.306;11.350;2023-07-09T04:39:28;96809.03;;;18.69;100.00
596;BME280;19946;49.306;11.350;2023-07-09T04:42:28;96735.69;;;18.45;100.00
596;BME280;19946;49.306;11.350;2023-07-09T04:45:29;96789.19;;;18.98;100.00
596;BME280;19946;49.306;11.350;2023-07-09T04:48:29;96870.06;;;19.56;100.00
596;BME280;19946;49.306;11.350;2023-07-09T04:51:29;96872.63;;;19.33;100.00
596;BME280;19946;49.306;11.350;2023-07-09T04:54:30;96873.03;;;19.53;100.00
596;BME280;19946;49.306;11.350;2023-07-09T04:57:30;96812.09;;;19.26;94.10
596;BME280;19946;49.306;11.350;2023-07-09T05:00:31;96847.31;;;19.63;100.00
596;BME280;19946;49.306;11.350;2023-07-09T05:03:31;96812.84;;;19.66;91.51
596;BME280;19946;49.306;11.350;2023-07-09T05:06:31;96813.94;;;19.49;97.94
596;BME280;19946;49.306;11.350;2023-07-09T05:09:32;96877.81;;;20.24;92.26
596;BME280;19946;49.306;11.350;2023-07-09T05:12:33;96746.09;;;19.90;82.80
596;BME280;19946;49.306;11.350;2023-07-09T05:15:33;96866.09;;;20.64;83.85
596;BME280;19946;49.306;11.350;2023-07-09T05:18:33;96895.06;;;21.15;80.00
596;BME280;19946;49.306;11.350;2023-07-09T05:21:34;96862.97;;;21.83;89.77
596;BME280;19946;49.306;11.350;2023-07-09T05:24:35;96885.88;;;22.04;83.77
596;BME280;19946;49.306;11.350;2023-07-09T05:27:35;96876.47;;;22.23;88.04
596;BME280;19946;49.306;11.350;2023-07-09T05:30:36;96859.19;;;22.48;70.68
596;BME280;19946;49.306;11.350;2023-07-09T05:33:36;96807.63;;;22.46;64.57
596;BME280;19946;49.306;11.350;2023-07-09T05:36:36;96837.97;;;23.17;61.88
596;BME280;19946;49.306;11.350;2023-07-09T05:39:36;96802.19;;;23.08;60.87
596;BME280;19946;49.306;11.350;2023-07-09T05:42:37;96856.59;;;24.16;69.43
596;BME280;19946;49.306;11.350;2023-07-09T05:45:40;96858.63;;;24.34;59.73
596;BME280;19946;49.306;11.350;2023-07-09T05:48:41;96864.69;;;24.67;57.92
596;BME280;19946;49.306;11.350;2023-07-09T05:51:41;96880.19;;;24.57;60.41
596;BME280;19946;49.306;11.350;2023-07-09T05:54:42;96867.53;;;24.72;58.52
596;BME280;19946;49.306;11.350;2023-07-09T05:57:43;96882.22;;;24.55;59.50
596;BME280;19946;49.306;11.350;2023-07-09T06:00:43;96875.06;;;24.69;58.28
596;BME280;19946;49.306;11.350;2023-07-09T06:03:43;96879.38;;;24.57;58.16
596;BME280;19946;49.306;11.350;2023-07-09T06:06:46;96818.75;;;24.42;57.56
596;BME280;19946;49.306;11.350;2023-07-09T06:09:46;96730.41;;;24.17;57.22
596;BME280;19946;49.306;11.350;2023-07-09T06:12:47;96877.97;;;25.57;55.26
596;BME280;19946;49.306;11.350;2023-07-09T06:15:50;96876.50;;;25.67;52.97
596;BME280;19946;49.306;11.350;2023-07-09T06:18:51;96826.97;;;25.23;51.24
596;BME280;19946;49.306;11.350;2023-07-09T06:21:51;96821.06;;;25.21;49.08
596;BME280;19946;49.306;11.350;2023-07-09T06:24:53;96819.75;;;25.37;46.98
596;BME280;19946;49.306;11.350;2023-07-09T06:27:54;96825.66;;;25.01;47.75
596;BME280;19946;49.306;11.350;2023-07-09T06:30:54;96866.88;;;24.97;49.39
596;BME280;19946;49.306;11.350;2023-07-09T06:33:54;96885.00;;;24.93;49.41
596;BME280;19946;49.306;11.350;2023-07-09T06:36:56;96812.00;;;24.40;48.62
596;BME280;19946;49.306;11.350;2023-07-09T06:39:56;96828.56;;;23.89;51.45
596;BME280;19946;49.306;11.350;2023-07-09T06:42:57;96854.16;;;23.95;51.00
596;BME280;19946;49.306;11.350;2023-07-09T06:46:07;96897.19;;;25.01;50.35
596;BME280;19946;49.306;11.350;2023-07-09T06:49:08;96885.41;;;24.77;48.83
596;BME280;19946;49.306;11.350;2023-07-09T06:52:08;96904.41;;;24.67;48.72
596;BME280;19946;49.306;11.350;2023-07-09T06:55:09;96832.06;;;24.73;47.88
596;BME280;19946;49.306;11.350;2023-07-09T06:58:09;96865.34;;;25.14;46.88
596;BME280;19946;49.306;11.350;2023-07-09T07:01:10;96912.56;;;25.75;46.09
596;BME280;19946;49.306;11.350;2023-07-09T07:04:11;96903.75;;;25.81;45.78
596;BME280;19946;49.306;11.350;2023-07-09T07:07:11;96902.50;;;25.52;45.91
596;BME280;19946;49.306;11.350;2023-07-09T07:10:11;96854.53;;;25.54;46.12
596;BME280;19946;49.306;11.350;2023-07-09T07:13:12;96902.09;;;26.11;46.54
596;BME280;19946;49.306;11.350;2023-07-09T07:16:12;96850.75;;;26.67;46.59
596;BME280;19946;49.306;11.350;2023-07-09T07:19:13;96898.69;;;26.54;43.93
596;BME280;19946;49.306;11.350;2023-07-09T07:22:13;96885.84;;;26.51;43.99
596;BME280;19946;49.306;11.350;2023-07-09T07:25:13;96901.81;;;26.69;45.67
596;BME280;19946;49.306;11.350;2023-07-09T07:28:14;96901.94;;;26.56;43.60
596;BME280;19946;49.306;11.350;2023-07-09T07:31:14;96905.06;;;27.26;43.55
596;BME280;19946;49.306;11.350;2023-07-09T07:34:15;96885.16;;;26.99;43.00
596;BME280;19946;49.306;11.350;2023-07-09T07:37:18;96827.41;;;26.33;43.61
596;BME280;19946;49.306;11.350;2023-07-09T07:40:22;96843.19;;;27.79;44.61
596;BME280;19946;49.306;11.350;2023-07-09T07:43:22;96903.91;;;28.35;42.23
596;BME280;19946;49.306;11.350;2023-07-09T07:46:22;96891.25;;;27.36;43.64
596;BME280;19946;49.306;11.350;2023-07-09T07:49:23;96872.88;;;27.64;42.51
596;BME280;19946;49.306;11.350;2023-07-09T07:52:23;96845.50;;;27.87;43.38
596;BME280;19946;49.306;11.350;2023-07-09T07:55:24;96848.47;;;28.32;42.05
596;BME280;19946;49.306;11.350;2023-07-09T07:58:25;96877.97;;;29.29;41.09
596;BME280;19946;49.306;11.350;2023-07-09T08:01:25;96831.81;;;28.88;40.26
596;BME280;19946;49.306;11.350;2023-07-09T08:04:26;96788.69;;;27.93;42.64
596;BME280;19946;49.306;11.350;2023-07-09T08:07:26;96818.88;;;28.68;41.23
596;BME280;19946;49.306;11.350;2023-07-09T08:10:27;96850.41;;;28.60;40.67
596;BME280;19946;49.306;11.350;2023-07-09T08:13:27;96884.59;;;28.86;41.50
596;BME280;19946;49.306;11.350;2023-07-09T08:16:27;96819.00;;;29.14;39.76
596;BME280;19946;49.306;11.350;2023-07-09T08:19:28;96881.44;;;29.29;39.29
596;BME280;19946;49.306;11.350;2023-07-09T08:22:28;96830.84;;;29.34;38.68
596;BME280;19946;49.306;11.350;2023-07-09T08:25:28;96865.28;;;30.09;39.43
596;BME280;19946;49.306;11.350;2023-07-09T08:28:29;96864.88;;;31.11;37.30
596;BME280;19946;49.306;11.350;2023-07-09T08:31:30;96868.88;;;31.09;36.63
596;BME280;19946;49.306;11.350;2023-07-09T08:34:30;96763.28;;;30.29;37.50
596;BME280;19946;49.306;11.350;2023-07-09T08:37:31;96776.44;;;29.97;37.61
596;BME280;19946;49.306;11.350;2023-07-09T08:40:31;96798.38;;;30.76;37.45
596;BME280;19946;49.306;11.350;2023-07-09T08:43:52;96862.44;;;30.88;36.24
596;BME280;19946;49.306;11.350;2023-07-09T08:47:02;96874.09;;;30.60;38.90
596;BME280;19946;49.306;11.350;2023-07-09T08:50:13;96853.16;;;30.74;35.48
596;BME280;19946;49.306;11.350;2023-07-09T08:53:27;96866.41;;;31.07;35.78
596;BME280;19946;49.306;11.350;2023-07-09T08:56:32;96868.34;;;31.34;34.41
596;BME280;19946;49.306;11.350;2023-07-09T08:59:33;96687.38;;;30.25;35.30
596;BME280;19946;49.306;11.350;2023-07-09T09:03:03;96834.19;;;30.20;35.46
596;BME280;19946;49.306;11.350;2023-07-09T09:06:17;96874.94;;;31.75;35.14
596;BME280;19946;49.306;11.350;2023-07-09T09:09:26;96863.66;;;32.32;31.71
596;BME280;19946;49.306;11.350;2023-07-09T09:15:47;96877.28;;;31.44;31.78
596;BME280;19946;49.306;11.350;2023-07-09T09:18:49;96835.25;;;31.18;34.60
596;BME280;19946;49.306;11.350;2023-07-09T09:21:56;96864.56;;;32.15;31.17
596;BME280;19946;49.306;11.350;2023-07-09T09:25:20;96865.03;;;31.75;33.03
596;BME280;19946;49.306;11.350;2023-07-09T09:28:21;96857.44;;;32.26;30.78
596;BME280;19946;49.306;11.350;2023-07-09T09:31:26;96857.75;;;31.98;33.12
596;BME280;19946;49.306;11.350;2023-07-09T09:34:29;96854.19;;;31.92;30.33
596;BME280;19946;49.306;11.350;2023-07-09T09:37:31;96758.00;;;31.22;31.23
596;BME280;19946;49.306;11.350;2023-07-09T09:40:34;96870.09;;;32.04;29.80
596;BME280;19946;49.306;11.350;2023-07-09T09:43:37;96816.81;;;31.43;31.13
596;BME280;19946;49.306;11.350;2023-07-09T09:46:37;96856.06;;;32.18;28.86
596;BME280;19946;49.306;11.350;2023-07-09T09:49:42;96842.88;;;33.11;27.87
596;BME280;19946;49.306;11.350;2023-07-09T09:52:43;96865.25;;;33.27;30.07
596;BME280;19946;49.306;11.350;2023-07-09T09:55:45;96755.16;;;31.33;29.76
596;BME280;19946;49.306;11.350;2023-07-09T09:58:46;96858.94;;;33.01;27.73
596;BME280;19946;49.306;11.350;2023-07-09T10:01:46;96840.28;;;32.22;26.48
596;BME280;19946;49.306;11.350;2023-07-09T10:04:47;96858.06;;;32.80;26.60
596;BME280;19946;49.306;11.350;2023-07-09T10:07:57;96774.84;;;32.65;25.46
596;BME280;19946;49.306;11.350;2023-07-09T10:11:12;96843.34;;;32.88;26.70
596;BME280;19946;49.306;11.350;2023-07-09T10:14:30;96844.66;;;33.53;28.22
596;BME280;19946;49.306;11.350;2023-07-09T10:17:43;96803.78;;;32.68;29.96
596;BME280;19946;49.306;11.350;2023-07-09T10:20:55;96861.72;;;32.69;28.95
596;BME280;19946;49.306;11.350;2023-07-09T10:24:19;96794.94;;;33.25;28.50
596;BME280;19946;49.306;11.350;2023-07-09T10:40:54;96789.75;;;34.75;27.50
596;BME280;19946;49.306;11.350;2023-07-09T10:44:12;96840.56;;;35.41;26.81
596;BME280;19946;49.306;11.350;2023-07-09T10:47:34;96815.63;;;34.46;26.84
596;BME280;19946;49.306;11.350;2023-07-09T10:50:38;96766.56;;;34.90;23.95
596;BME280;19946;49.306;11.350;2023-07-09T10:53:44;96775.13;;;33.77;26.76
596;BME280;19946;49.306;11.350;2023-07-09T10:56:48;96782.38;;;33.91;26.50
596;BME280;19946;49.306;11.350;2023-07-09T10:59:50;96810.28;;;34.36;25.95
596;BME280;19946;49.306;11.350;2023-07-09T11:02:58;96786.38;;;34.34;26.25
596;BME280;19946;49.306;11.350;2023-07-09T11:06:00;96830.97;;;32.77;27.61
596;BME280;19946;49.306;11.350;2023-07-09T11:09:00;96798.28;;;32.33;29.30
596;BME280;19946;49.306;11.350;2023-07-09T11:12:07;96826.59;;;33.33;28.27
596;BME280;19946;49.306;11.350;2023-07-09T11:15:14;96819.88;;;33.20;29.20
596;BME280;19946;49.306;11.350;2023-07-09T11:18:24;96762.97;;;33.18;27.72
596;BME280;19946;49.306;11.350;2023-07-09T11:21:25;96780.22;;;34.03;26.72
596;BME280;19946;49.306;11.350;2023-07-09T11:24:36;96771.16;;;32.76;26.70
596;BME280;19946;49.306;11.350;2023-07-09T11:27:49;96825.59;;;33.69;27.15
596;BME280;19946;49.306;11.350;2023-07-09T11:30:52;96771.91;;;33.90;26.48
596;BME280;19946;49.306;11.350;2023-07-09T11:34:09;96750.38;;;34.00;26.71
596;BME280;19946;49.306;11.350;2023-07-09T11:37:12;96819.72;;;34.03;26.75
596;BME280;19946;49.306;11.350;2023-07-09T11:40:13;96824.53;;;34.01;26.17
596;BME280;19946;49.306;11.350;2023-07-09T11:43:36;96817.69;;;33.22;28.84
596;BME280;19946;49.306;11.350;2023-07-09T11:46:54;96769.50;;;33.83;26.57
596;BME280;19946;49.306;11.350;2023-07-09T11:49:59;96775.63;;;33.28;26.30
596;BME280;19946;49.306;11.350;2023-07-09T11:53:41;96816.13;;;31.85;28.31
596;BME280;19946;49.306;11.350;2023-07-09T11:56:53;96802.50;;;31.91;30.97
596;BME280;19946;49.306;11.350;2023-07-09T11:59:58;96742.13;;;32.11;29.33
596;BME280;19946;49.306;11.350;2023-07-09T12:02:59;96742.81;;;33.11;26.98
596;BME280;19946;49.306;11.350;2023-07-09T12:06:02;96794.16;;;33.45;27.96
596;BME280;19946;49.306;11.350;2023-07-09T12:09:04;96739.28;;;32.85;26.86
596;BME280;19946;49.306;11.350;2023-07-09T12:12:17;96727.19;;;32.82;26.75
596;BME280;19946;49.306;11.350;2023-07-09T12:15:21;96739.66;;;33.95;25.73
596;BME280;19946;49.306;11.350;2023-07-09T12:18:21;96736.91;;;34.35;26.75
596;BME280;19946;49.306;11.350;2023-07-09T12:21:23;96776.03;;;35.26;27.28
596;BME280;19946;49.306;11.350;2023-07-09T12:24:27;96778.66;;;32.74;28.04
596;BME280;19946;49.306;11.350;2023-07-09T12:27:31;96665.94;;;32.44;27.04
596;BME280;19946;49.306;11.350;2023-07-09T12:30:37;96748.25;;;32.58;26.26
596;BME280;19946;49.306;11.350;2023-07-09T12:33:37;96658.38;;;31.09;27.52
596;BME280;19946;49.306;11.350;2023-07-09T12:36:38;96783.63;;;32.13;28.81
596;BME280;19946;49.306;11.350;2023-07-09T12:39:42;96758.84;;;32.85;28.46
596;BME280;19946;49.306;11.350;2023-07-09T12:42:43;96723.03;;;32.49;28.22
596;BME280;19946;49.306;11.350;2023-07-09T12:45:44;96759.25;;;32.57;28.61
596;BME280;19946;49.306;11.350;2023-07-09T12:48:45;96763.66;;;32.26;28.72
596;BME280;19946;49.306;11.350;2023-07-09T12:51:46;96697.81;;;31.93;27.79
596;BME280;19946;49.306;11.350;2023-07-09T12:54:57;96697.91;;;31.66;28.07
596;BME280;19946;49.306;11.350;2023-07-09T12:57:59;96747.72;;;32.09;28.22
596;BME280;19946;49.306;11.350;2023-07-09T13:01:05;96701.84;;;32.48;27.58
596;BME280;19946;49.306;11.350;2023-07-09T13:04:08;96675.47;;;32.87;28.11
596;BME280;19946;49.306;11.350;2023-07-09T13:10:26;96747.22;;;34.83;27.10
596;BME280;19946;49.306;11.350;2023-07-09T13:13:27;96737.16;;;35.03;27.55
596;BME280;19946;49.306;11.350;2023-07-09T13:16:28;96694.59;;;34.51;25.80
596;BME280;19946;49.306;11.350;2023-07-09T13:19:28;96691.09;;;34.56;25.73
596;BME280;19946;49.306;11.350;2023-07-09T13:22:28;96622.34;;;32.84;26.25
596;BME280;19946;49.306;11.350;2023-07-09T13:25:29;96696.94;;;33.98;27.04
596;BME280;19946;49.306;11.350;2023-07-09T13:28:31;96743.16;;;33.90;26.82
596;BME280;19946;49.306;11.350;2023-07-09T13:31:31;96742.09;;;33.91;26.91
596;BME280;19946;49.306;11.350;2023-07-09T13:34:33;96713.09;;;33.63;26.83
596;BME280;19946;49.306;11.350;2023-07-09T13:37:33;96725.69;;;33.67;27.14
596;BME280;19946;49.306;11.350;2023-07-09T13:40:33;96740.91;;;34.43;25.81
596;BME280;19946;49.306;11.350;2023-07-09T13:43:35;96720.09;;;34.69;25.61
596;BME280;19946;49.306;11.350;2023-07-09T13:46:36;96615.16;;;34.25;24.88
596;BME280;19946;49.306;11.350;2023-07-09T13:49:36;96716.53;;;34.84;24.52
596;BME280;19946;49.306;11.350;2023-07-09T13:52:37;96703.34;;;34.28;25.02
596;BME280;19946;49.306;11.350;2023-07-09T13:55:37;96670.22;;;34.37;26.21
596;BME280;19946;49.306;11.350;2023-07-09T13:58:37;96732.56;;;34.45;26.47
596;BME280;19946;49.306;11.350;2023-07-09T14:01:38;96709.00;;;34.86;24.87
596;BME280;19946;49.306;11.350;2023-07-09T14:04:38;96712.75;;;34.10;25.25
596;BME280;19946;49.306;11.350;2023-07-09T14:07:41;96704.16;;;34.13;25.05
596;BME280;19946;49.306;11.350;2023-07-09T14:10:42;96703.41;;;33.87;25.22
596;BME280;19946;49.306;11.350;2023-07-09T14:13:43;96644.38;;;33.37;24.90
596;BME280;19946;49.306;11.350;2023-07-09T14:16:44;96709.53;;;34.28;24.25
596;BME280;19946;49.306;11.350;2023-07-09T14:19:44;96682.97;;;34.66;24.96
596;BME280;19946;49.306;11.350;2023-07-09T14:22:45;96693.84;;;35.00;24.18
596;BME280;19946;49.306;11.350;2023-07-09T14:25:46;96677.84;;;34.80;24.94
596;BME280;19946;49.306;11.350;2023-07-09T14:28:47;96683.72;;;34.27;25.11
596;BME280;19946;49.306;11.350;2023-07-09T14:31:48;96640.66;;;34.32;25.54
596;BME280;19946;49.306;11.350;2023-07-09T14:34:48;96613.47;;;33.44;26.58
596;BME280;19946;49.306;11.350;2023-07-09T14:37:50;96696.69;;;33.95;25.95
596;BME280;19946;49.306;11.350;2023-07-09T14:40:55;96692.69;;;33.52;25.99
596;BME280;19946;49.306;11.350;2023-07-09T14:43:57;96631.69;;;33.78;26.09
596;BME280;19946;49.306;11.350;2023-07-09T14:47:00;96642.44;;;34.57;26.62
596;BME280;19946;49.306;11.350;2023-07-09T14:50:00;96621.97;;;33.97;25.96
596;BME280;19946;49.306;11.350;2023-07-09T14:53:00;96629.03;;;33.72;25.73
596;BME280;19946;49.306;11.350;2023-07-09T14:56:01;96656.69;;;33.63;25.35
596;BME280;19946;49.306;11.350;2023-07-09T14:59:01;96683.28;;;33.80;25.91
596;BME280;19946;49.306;11.350;2023-07-09T15:02:01;96620.16;;;33.67;26.23
596;BME280;19946;49.306;11.350;2023-07-09T15:05:04;96661.16;;;34.13;25.37
596;BME280;19946;49.306;11.350;2023-07-09T15:08:19;96614.78;;;33.82;25.18
596;BME280;19946;49.306;11.350;2023-07-09T15:11:19;96631.03;;;34.26;26.56
596;BME280;19946;49.306;11.350;2023-07-09T15:14:20;96603.69;;;34.04;24.70
596;BME280;19946;49.306;11.350;2023-07-09T15:17:20;96631.81;;;34.22;26.91
596;BME280;19946;49.306;11.350;2023-07-09T15:20:23;96666.16;;;34.50;26.57
596;BME280;19946;49.306;11.350;2023-07-09T15:23:27;96646.47;;;34.55;24.81
596;BME280;19946;49.306;11.350;2023-07-09T15:26:28;96610.78;;;33.54;26.17
596;BME280;19946;49.306;11.350;2023-07-09T15:29:28;96555.72;;;32.25;27.20
596;BME280;19946;49.306;11.350;2023-07-09T15:32:29;96601.28;;;32.20;27.95
596;BME280;19946;49.306;11.350;2023-07-09T15:35:34;96528.84;;;32.05;27.83
596;BME280;19946;49.306;11.350;2023-07-09T15:38:37;96651.31;;;33.02;28.05
596;BME280;19946;49.306;11.350;2023-07-09T15:41:40;96592.28;;;32.72;27.18
596;BME280;19946;49.306;11.350;2023-07-09T15:44:41;96655.63;;;32.98;28.08
596;BME280;19946;49.306;11.350;2023-07-09T15:47:42;96605.59;;;32.31;30.70
596;BME280;19946;49.306;11.350;2023-07-09T15:50:42;96644.97;;;32.36;30.05
596;BME280;19946;49.306;11.350;2023-07-09T15:53:43;96632.47;;;32.67;28.04
596;BME280;19946;49.306;11.350;2023-07-09T15:56:44;96589.50;;;32.31;26.70
596;BME280;19946;49.306;11.350;2023-07-09T15:59:45;96583.91;;;32.43;26.90
596;BME280;19946;49.306;11.350;2023-07-09T16:02:46;96560.53;;;32.18;27.48
596;BME280;19946;49.306;11.350;2023-07-09T16:05:48;96638.38;;;32.69;27.18
596;BME280;19946;49.306;11.350;2023-07-09T16:08:48;96616.03;;;32.22;27.06
596;BME280;19946;49.306;11.350;2023-07-09T16:11:52;96617.75;;;31.97;28.17
596;BME280;19946;49.306;11.350;2023-07-09T16:14:53;96627.63;;;31.91;27.38
596;BME280;19946;49.306;11.350;2023-07-09T16:17:54;96637.06;;;31.99;32.54
596;BME280;19946;49.306;11.350;2023-07-09T16:20:54;96625.00;;;31.59;31.42
596;BME280;19946;49.306;11.350;2023-07-09T16:23:57;96595.56;;;31.59;29.43
596;BME280;19946;49.306;11.350;2023-07-09T16:27:01;96571.59;;;31.74;28.33
596;BME280;19946;49.306;11.350;2023-07-09T16:30:10;96592.31;;;31.99;28.46
596;BME280;19946;49.306;11.350;2023-07-09T16:33:11;96525.06;;;31.38;28.76
596;BME280;19946;49.306;11.350;2023-07-09T16:36:13;96627.44;;;32.13;28.90
596;BME280;19946;49.306;11.350;2023-07-09T16:39:38;96548.47;;;31.58;28.14